createdAt,value
2018-07-06T00:00:18.573Z,0.5
2018-07-06T00:02:18.370Z,0.5
2018-07-06T00:04:18.168Z,0.5
2018-07-06T00:06:18.474Z,0.7
2018-07-06T00:08:18.245Z,0.6
2018-07-06T00:10:18.493Z,0.6
2018-07-06T00:12:18.311Z,0.4
2018-07-06T00:14:18.138Z,0.6
2018-07-06T00:16:18.105Z,0.5
2018-07-06T00:18:17.981Z,0.4
2018-07-06T00:20:17.775Z,0.6
2018-07-06T00:22:17.571Z,0.3
2018-07-06T00:24:18.371Z,0.3
2018-07-06T00:26:17.967Z,0.7
2018-07-06T00:28:17.767Z,0.6
2018-07-06T00:30:17.571Z,0.4
2018-07-06T00:32:19.383Z,0.5
2018-07-06T00:34:18.199Z,0.4
2018-07-06T00:36:17.952Z,0.6
2018-07-06T00:38:17.752Z,0.3
2018-07-06T00:40:17.998Z,0.4
2018-07-06T00:42:18.799Z,0.4
2018-07-06T00:44:17.607Z,0.8
2018-07-06T00:46:18.699Z,0.4
2018-07-06T00:48:18.495Z,0.4
2018-07-06T00:50:18.365Z,0.5
2018-07-06T00:52:19.192Z,0.5
2018-07-06T00:54:17.985Z,0.5
2018-07-06T00:56:19.400Z,0.6
2018-07-06T00:58:19.170Z,0.3
2018-07-06T01:00:17.980Z,0.5
2018-07-06T01:02:18.757Z,1.3
2018-07-06T01:04:18.556Z,0.4
2018-07-06T01:06:17.980Z,0.3
2018-07-06T01:08:18.782Z,0.2
2018-07-06T01:10:18.065Z,0.3
2018-07-06T01:12:18.867Z,0.2
2018-07-06T01:14:18.676Z,0.4
2018-07-06T01:16:19.272Z,0.5
2018-07-06T01:18:18.110Z,0.5
2018-07-06T01:20:18.879Z,0.3
2018-07-06T01:22:18.649Z,0.3
2018-07-06T01:24:19.476Z,0.4
2018-07-06T01:26:17.552Z,0.5
2018-07-06T01:28:18.330Z,0.3
2018-07-06T01:30:19.133Z,0.6
2018-07-06T01:32:18.935Z,0.3
2018-07-06T01:34:17.754Z,0.4
2018-07-06T01:36:19.511Z,0.3
2018-07-06T01:38:19.276Z,0.3
2018-07-06T01:40:17.569Z,0.2
2018-07-06T01:42:18.386Z,0.1
2018-07-06T01:44:19.188Z,0.3
2018-07-06T01:46:19.331Z,0.4
2018-07-06T01:48:19.137Z,0.2
2018-07-06T01:50:18.938Z,0.3
2018-07-06T01:52:18.715Z,0.4
2018-07-06T01:54:18.520Z,0.2
2018-07-06T01:56:18.605Z,0.2
2018-07-06T01:58:18.411Z,0.2
2018-07-06T02:00:18.182Z,0.6
2018-07-06T02:02:18.956Z,0.3
2018-07-06T02:04:18.742Z,0.3
2018-07-06T02:06:19.287Z,0.3
2018-07-06T02:08:19.064Z,0.3
2018-07-06T02:10:19.307Z,0.2
2018-07-06T02:12:18.104Z,0.4
2018-07-06T02:14:18.872Z,0.2
2018-07-06T02:16:18.958Z,0.3
2018-07-06T02:18:18.820Z,1.5
2018-07-06T02:20:18.756Z,0.5
2018-07-06T02:22:18.545Z,0.3
2018-07-06T02:24:19.320Z,0.2
2018-07-06T02:26:18.952Z,0.1
2018-07-06T02:28:17.764Z,0.3
2018-07-06T02:30:18.687Z,0.2
2018-07-06T02:32:19.485Z,0.4
2018-07-06T02:34:18.302Z,0.2
2018-07-06T02:36:19.359Z,0.2
2018-07-06T02:38:18.154Z,0.3
2018-07-06T02:40:19.589Z,0.3
2018-07-06T02:42:19.381Z,0.4
2018-07-06T02:44:18.203Z,0.3
2018-07-06T02:46:17.585Z,0.2
2018-07-06T02:48:19.385Z,0.2
2018-07-06T02:50:19.186Z,0.4
2018-07-06T02:52:17.967Z,0.4
2018-07-06T02:54:18.760Z,0.4
2018-07-06T02:56:18.088Z,0.3
2018-07-06T02:58:18.883Z,0.2
2018-07-06T03:00:18.691Z,0.3
2018-07-06T03:02:19.477Z,0.3
2018-07-06T03:04:18.300Z,0.5
2018-07-06T03:06:18.906Z,0.3
2018-07-06T03:08:18.734Z,0.3
2018-07-06T03:10:18.135Z,0.3
2018-07-06T03:12:18.927Z,0.2
2018-07-06T03:14:18.729Z,0.4
2018-07-06T03:16:18.867Z,0.3
2018-07-06T03:18:17.743Z,0.3
2018-07-06T03:20:18.577Z,0.3
2018-07-06T03:22:19.381Z,0.3
2018-07-06T03:24:18.169Z,0.3
2018-07-06T03:26:19.236Z,0.2
2018-07-06T03:28:19.106Z,0.3
2018-07-06T03:30:19.200Z,0.2
2018-07-06T03:32:17.994Z,0.1
2018-07-06T03:34:18.774Z,0.3
2018-07-06T03:36:19.328Z,0.2
2018-07-06T03:38:19.122Z,0.1
2018-07-06T03:40:19.384Z,0.4
2018-07-06T03:42:19.000Z,0.4
2018-07-06T03:44:17.782Z,0.2
2018-07-06T03:46:19.300Z,0.3
2018-07-06T03:48:19.072Z,0.1
2018-07-06T03:50:18.883Z,0.3
2018-07-06T03:52:17.666Z,0.2
2018-07-06T03:54:19.501Z,0.4
2018-07-06T03:56:17.672Z,0.5
2018-07-06T03:58:19.484Z,0.3
2018-07-06T04:00:19.441Z,0.2
2018-07-06T04:02:19.280Z,0.5
2018-07-06T04:04:18.094Z,0.2
2018-07-06T04:06:19.195Z,0.2
2018-07-06T04:08:17.984Z,0.3
2018-07-06T04:10:19.207Z,0.3
2018-07-06T04:12:19.006Z,0.2
2018-07-06T04:14:18.811Z,0.4
2018-07-06T04:16:17.910Z,0.8
2018-07-06T04:18:18.810Z,0.4
2018-07-06T04:20:18.638Z,0.5
2018-07-06T04:22:18.452Z,0.3
2018-07-06T04:24:18.247Z,0.9
2018-07-06T04:26:18.921Z,0.6
2018-07-06T04:28:17.697Z,0.4
2018-07-06T04:30:19.498Z,0.4
2018-07-06T04:32:19.277Z,0.4
2018-07-06T04:34:18.047Z,1.1
2018-07-06T04:36:18.836Z,0.5
2018-07-06T04:38:18.658Z,0.4
2018-07-06T04:40:18.904Z,0.5
2018-07-06T04:42:17.659Z,0.5
2018-07-06T04:44:19.500Z,0.8
2018-07-06T04:46:18.735Z,0.8
2018-07-06T04:48:17.507Z,0.7
2018-07-06T04:50:19.301Z,1
2018-07-06T04:52:19.082Z,0.6
2018-07-06T04:54:18.849Z,0.7
2018-07-06T04:56:17.506Z,0.6
2018-07-06T04:58:18.271Z,0.5
2018-07-06T05:00:19.045Z,0.9
2018-07-06T05:02:18.848Z,0.7
2018-07-06T05:04:18.617Z,1.1
2018-07-06T05:06:19.133Z,0.8
2018-07-06T05:08:18.909Z,0.7
2018-07-06T05:10:19.122Z,0.7
2018-07-06T05:12:18.880Z,0.8
2018-07-06T05:14:18.645Z,0.7
2018-07-06T05:16:18.650Z,0.8
2018-07-06T05:18:19.486Z,0.6
2018-07-06T05:20:19.386Z,0.4
2018-07-06T05:22:19.150Z,0.7
2018-07-06T05:24:18.913Z,0.6
2018-07-06T05:26:18.440Z,0.8
2018-07-06T05:28:19.216Z,0.6
2018-07-06T05:30:17.987Z,0.5
2018-07-06T05:32:18.752Z,0.7
2018-07-06T05:34:18.511Z,0.8
2018-07-06T05:36:19.050Z,0.6
2018-07-06T05:38:18.833Z,0.4
2018-07-06T05:40:19.051Z,0.7
2018-07-06T05:42:18.809Z,0.8
2018-07-06T05:44:18.595Z,0.6
2018-07-06T05:46:19.110Z,0.5
2018-07-06T05:48:18.901Z,0.4
2018-07-06T05:50:18.673Z,0.7
2018-07-06T05:52:19.444Z,0.6
2018-07-06T05:54:19.231Z,0.7
2018-07-06T05:56:18.719Z,0.6
2018-07-06T05:58:19.496Z,0.5
2018-07-06T06:00:19.330Z,0.6
2018-07-06T06:02:19.339Z,0.5
2018-07-06T06:04:19.117Z,0.6
2018-07-06T06:06:18.780Z,0.6
2018-07-06T06:08:18.535Z,0.8
2018-07-06T06:10:18.762Z,0.3
2018-07-06T06:12:18.534Z,0.9
2018-07-06T06:14:19.419Z,0.3
2018-07-06T06:16:18.930Z,0.7
2018-07-06T06:18:18.764Z,0.7
2018-07-06T06:20:17.550Z,0.5
2018-07-06T06:22:19.046Z,0.6
2018-07-06T06:24:18.814Z,0.9
2018-07-06T06:26:18.856Z,0.8
2018-07-06T06:28:18.618Z,0.9
2018-07-06T06:30:19.407Z,0.6
2018-07-06T06:32:19.175Z,0.5
2018-07-06T06:34:18.931Z,0.5
2018-07-06T06:36:19.317Z,0.5
2018-07-06T06:38:19.079Z,0.9
2018-07-06T06:40:19.300Z,0.5
2018-07-06T06:42:19.074Z,0.7
2018-07-06T06:44:18.841Z,0.5
2018-07-06T06:46:19.336Z,0.7
2018-07-06T06:48:19.119Z,1
2018-07-06T06:50:18.913Z,0.7
2018-07-06T06:52:18.682Z,0.5
2018-07-06T06:54:19.459Z,0.7
2018-07-06T06:56:18.580Z,0.7
2018-07-06T06:58:19.364Z,1.3
2018-07-06T07:00:21.149Z,1.3
2018-07-06T07:02:19.095Z,0.8
2018-07-06T07:04:18.866Z,1
2018-07-06T07:06:18.452Z,0.7
2018-07-06T07:08:19.246Z,0.8
2018-07-06T07:10:19.460Z,1.1
2018-07-06T07:12:18.236Z,0.6
2018-07-06T07:14:19.017Z,0.8
2018-07-06T07:16:19.039Z,0.6
2018-07-06T07:18:18.874Z,1
2018-07-06T07:20:18.690Z,0.8
2018-07-06T07:22:18.479Z,0.9
2018-07-06T07:24:19.260Z,1.3
2018-07-06T07:26:18.742Z,0.6
2018-07-06T07:28:18.506Z,0.8
2018-07-06T07:30:18.306Z,0.5
2018-07-06T07:32:18.805Z,0.9
2018-07-06T07:34:18.566Z,1
2018-07-06T07:36:17.815Z,1.4
2018-07-06T07:38:17.584Z,1.3
2018-07-06T07:40:18.808Z,0.8
2018-07-06T07:42:17.563Z,0.6
2018-07-06T07:44:19.372Z,0.6
2018-07-06T07:46:19.068Z,1
2018-07-06T07:48:18.840Z,1.1
2018-07-06T07:50:18.633Z,0.8
2018-07-06T07:52:18.394Z,0.7
2018-07-06T07:54:18.249Z,0.7
2018-07-06T07:56:18.860Z,1.1
2018-07-06T07:58:18.637Z,1.7
2018-07-06T08:00:19.509Z,1.1
2018-07-06T08:02:19.468Z,2
2018-07-06T08:04:18.233Z,1.6
2018-07-06T08:06:18.605Z,0.8
2018-07-06T08:08:18.366Z,1.2
2018-07-06T08:10:18.596Z,1
2018-07-06T08:12:18.647Z,1.1
2018-07-06T08:14:19.421Z,1.3
2018-07-06T08:16:18.643Z,1.2
2018-07-06T08:18:18.492Z,1.2
2018-07-06T08:20:18.330Z,1
2018-07-06T08:22:19.098Z,1.7
2018-07-06T08:24:17.880Z,0.8
2018-07-06T08:26:19.371Z,1.3
2018-07-06T08:28:19.129Z,0.6
2018-07-06T08:30:18.982Z,0.9
2018-07-06T08:32:18.861Z,0.8
2018-07-06T08:34:17.639Z,0.9
2018-07-06T08:36:17.822Z,1.5
2018-07-06T08:38:18.583Z,0.8
2018-07-06T08:40:18.806Z,1.5
2018-07-06T08:42:18.580Z,1.3
2018-07-06T08:44:19.372Z,1.2
2018-07-06T08:46:19.454Z,1.8
2018-07-06T08:48:19.232Z,1.4
2018-07-06T08:50:18.050Z,1
2018-07-06T08:52:18.868Z,1
2018-07-06T08:54:18.643Z,1.1
2018-07-06T08:56:18.672Z,1.1
2018-07-06T08:58:18.503Z,1.1
2018-07-06T09:00:19.358Z,1.3
2018-07-06T09:02:19.124Z,1.5
2018-07-06T09:04:19.063Z,1.1
2018-07-06T09:06:18.883Z,1.3
2018-07-06T09:08:18.647Z,1.3
2018-07-06T09:10:18.881Z,1.9
2018-07-06T09:12:18.651Z,1.2
2018-07-06T09:14:19.425Z,1.5
2018-07-06T09:16:17.983Z,1.7
2018-07-06T09:18:18.950Z,1.3
2018-07-06T09:20:17.960Z,1.9
2018-07-06T09:22:18.733Z,2.4
2018-07-06T09:24:18.502Z,1.6
2018-07-06T09:26:18.518Z,2
2018-07-06T09:28:18.340Z,1.5
2018-07-06T09:30:19.131Z,2.1
2018-07-06T09:32:17.905Z,2.1
2018-07-06T09:34:17.667Z,2.5
2018-07-06T09:36:18.966Z,1.5
2018-07-06T09:38:17.740Z,2.2
2018-07-06T09:40:17.945Z,1.7
2018-07-06T09:42:18.541Z,1.8
2018-07-06T09:44:19.333Z,2.3
2018-07-06T09:46:17.987Z,2.5
2018-07-06T09:48:18.754Z,3.1
2018-07-06T09:50:18.543Z,2.4
2018-07-06T09:52:19.341Z,2.6
2018-07-06T09:54:18.109Z,2
2018-07-06T09:56:18.658Z,1.7
2018-07-06T09:58:19.420Z,2.2
2018-07-06T10:00:18.300Z,1.8
2018-07-06T10:02:18.067Z,1.8
2018-07-06T10:04:18.900Z,1.5
2018-07-06T10:06:17.987Z,1.9
2018-07-06T10:08:17.768Z,1.7
2018-07-06T10:10:18.035Z,1.4
2018-07-06T10:12:17.956Z,2.3
2018-07-06T10:14:17.722Z,2.4
2018-07-06T10:16:17.819Z,1.1
2018-07-06T10:18:17.788Z,1.6
2018-07-06T10:20:18.570Z,1.2
2018-07-06T10:22:19.382Z,1.8
2018-07-06T10:24:18.185Z,2.2
2018-07-06T10:26:18.364Z,1.7
2018-07-06T10:28:19.149Z,1.5
2018-07-06T10:30:17.942Z,1.6
2018-07-06T10:32:18.708Z,1.8
2018-07-06T10:34:19.504Z,1.6
2018-07-06T10:36:19.002Z,1.2
2018-07-06T10:38:18.786Z,1.5
2018-07-06T10:40:17.989Z,1.8
2018-07-06T10:42:17.762Z,1.6
2018-07-06T10:44:17.544Z,2.3
2018-07-06T10:46:19.051Z,1
2018-07-06T10:48:17.813Z,1
2018-07-06T10:50:18.618Z,1.1
2018-07-06T10:52:18.402Z,1
2018-07-06T10:54:18.177Z,2.6
2018-07-06T10:56:19.215Z,1.2
2018-07-06T10:58:18.020Z,1.3
2018-07-06T11:00:18.823Z,1.4
2018-07-06T11:02:17.606Z,1
2018-07-06T11:04:19.404Z,0.8
2018-07-06T11:06:18.617Z,0.9
2018-07-06T11:08:18.419Z,0.5
2018-07-06T11:10:17.642Z,0.7
2018-07-06T11:12:19.422Z,0.6
2018-07-06T11:14:18.196Z,0.8
2018-07-06T11:16:18.326Z,0.7
2018-07-06T11:18:18.161Z,0.9
2018-07-06T11:20:19.022Z,0.9
2018-07-06T11:22:18.801Z,1.9
2018-07-06T11:24:17.585Z,0.7
2018-07-06T11:26:18.171Z,1.2
2018-07-06T11:28:18.933Z,0.6
2018-07-06T11:30:18.709Z,1
2018-07-06T11:32:18.494Z,1
2018-07-06T11:34:18.269Z,0.9
2018-07-06T11:36:19.310Z,0.9
2018-07-06T11:38:18.118Z,0.8
2018-07-06T11:40:17.565Z,0.8
2018-07-06T11:42:18.351Z,0.9
2018-07-06T11:44:18.116Z,0.7
2018-07-06T11:46:19.374Z,0.6
2018-07-06T11:48:19.139Z,0.9
2018-07-06T11:50:17.965Z,1.1
2018-07-06T11:52:17.772Z,0.9
2018-07-06T11:54:18.558Z,0.9
2018-07-06T11:56:17.926Z,0.9
2018-07-06T11:58:18.787Z,0.6
2018-07-06T12:00:17.715Z,0.6
2018-07-06T12:02:17.714Z,0.8
2018-07-06T12:04:18.643Z,1.1
2018-07-06T12:06:19.494Z,0.7
2018-07-06T12:08:18.273Z,0.7
2018-07-06T12:10:19.489Z,0.8
2018-07-06T12:12:19.270Z,0.4
2018-07-06T12:14:18.052Z,0.7
2018-07-06T12:16:17.567Z,1.4
2018-07-06T12:18:18.491Z,0.7
2018-07-06T12:20:19.332Z,0.7
2018-07-06T12:22:18.134Z,0.6
2018-07-06T12:24:17.948Z,0.4
2018-07-06T12:26:19.234Z,0.5
2018-07-06T12:28:18.033Z,0.5
2018-07-06T12:30:17.957Z,0.5
2018-07-06T12:32:17.779Z,0.6
2018-07-06T12:34:17.599Z,0.5
2018-07-06T12:36:17.742Z,0.8
2018-07-06T12:38:17.626Z,0.7
2018-07-06T12:40:17.907Z,0.5
2018-07-06T12:42:18.091Z,0.8
2018-07-06T12:44:18.913Z,0.8
2018-07-06T12:46:18.017Z,0.8
2018-07-06T12:48:18.824Z,0.8
2018-07-06T12:50:17.632Z,0.6
2018-07-06T12:52:18.426Z,0.6
2018-07-06T12:54:18.245Z,0.4
2018-07-06T12:56:18.417Z,0.7
2018-07-06T12:58:18.451Z,0.5
2018-07-06T13:00:19.555Z,0.4
2018-07-06T13:02:18.104Z,0.7
2018-07-06T13:04:17.930Z,0.5
2018-07-06T13:06:18.502Z,0.3
2018-07-06T13:08:18.340Z,0.6
2018-07-06T13:10:17.681Z,0.8
2018-07-06T13:12:18.501Z,0.4
2018-07-06T13:14:18.313Z,0.4
2018-07-06T13:16:18.102Z,0.4
2018-07-06T13:18:17.981Z,0.8
2018-07-06T13:20:17.807Z,0.7
2018-07-06T13:22:17.605Z,0.3
2018-07-06T13:24:18.415Z,0.5
2018-07-06T13:26:18.107Z,0.9
2018-07-06T13:28:17.912Z,0.7
2018-07-06T13:30:17.809Z,0.8
2018-07-06T13:32:17.650Z,0.5
2018-07-06T13:34:18.456Z,1.1
2018-07-06T13:36:17.737Z,0.5
2018-07-06T13:38:17.545Z,1
2018-07-06T13:40:17.851Z,0.9
2018-07-06T13:42:17.654Z,0.6
2018-07-06T13:44:18.456Z,0.6
2018-07-06T13:46:17.607Z,0.4
2018-07-06T13:48:18.419Z,0.1
2018-07-06T13:50:18.250Z,0.3
2018-07-06T13:52:18.046Z,0.5
2018-07-06T13:54:17.871Z,0.4
2018-07-06T13:56:18.323Z,0.4
2018-07-06T13:58:18.143Z,0.3
2018-07-06T14:00:17.982Z,0.4
2018-07-06T14:02:17.835Z,0.6
2018-07-06T14:04:17.686Z,0.6
2018-07-06T14:06:17.614Z,0.4
2018-07-06T14:08:18.448Z,0.8
2018-07-06T14:10:17.906Z,0.9
2018-07-06T14:12:17.748Z,0.6
2018-07-06T14:14:17.608Z,1.2
2018-07-06T14:16:17.755Z,0.6
2018-07-06T14:18:17.694Z,1
2018-07-06T14:20:18.551Z,0.3
2018-07-06T14:22:18.160Z,0.4
2018-07-06T14:24:17.995Z,0.4
2018-07-06T14:26:18.146Z,0.7
2018-07-06T14:28:17.969Z,0.5
2018-07-06T14:30:17.837Z,1.1
2018-07-06T14:32:17.677Z,0.4
2018-07-06T14:34:18.542Z,0.3
2018-07-06T14:36:18.447Z,0.5
2018-07-06T14:38:18.279Z,0.2
2018-07-06T14:40:17.620Z,0.3
2018-07-06T14:42:18.461Z,0.3
2018-07-06T14:44:18.291Z,0.3
2018-07-06T14:46:17.968Z,0.3
2018-07-06T14:48:17.821Z,0.2
2018-07-06T14:50:17.663Z,0.3
2018-07-06T14:52:18.504Z,0.3
2018-07-06T14:54:18.337Z,0.3
2018-07-06T14:56:17.979Z,0.4
2018-07-06T14:58:17.810Z,0.3
2018-07-06T15:00:17.653Z,0.3
2018-07-06T15:02:18.467Z,0.4
2018-07-06T15:04:18.278Z,0.3
2018-07-06T15:06:18.152Z,0.2
2018-07-06T15:08:17.992Z,0.3
2018-07-06T15:10:18.303Z,0.2
2018-07-06T15:12:18.171Z,0.3
2018-07-06T15:14:18.158Z,0.3
2018-07-06T15:16:18.308Z,0.3
2018-07-06T15:18:18.292Z,0.4
2018-07-06T15:20:18.219Z,0.3
2018-07-06T15:22:18.075Z,0.4
2018-07-06T15:24:17.914Z,0.4
2018-07-06T15:26:18.486Z,0.4
2018-07-06T15:28:18.306Z,0.2
2018-07-06T15:30:18.148Z,0.4
2018-07-06T15:32:17.961Z,0.4
2018-07-06T15:34:17.793Z,0.6
2018-07-06T15:36:18.440Z,0.3
2018-07-06T15:38:18.273Z,0.3
2018-07-06T15:40:17.642Z,0.4
2018-07-06T15:42:18.492Z,0.3
2018-07-06T15:44:18.314Z,0.2
2018-07-06T15:46:17.908Z,0.3
2018-07-06T15:48:17.717Z,0.4
2018-07-06T15:50:17.589Z,0.5
2018-07-06T15:52:18.430Z,0.4
2018-07-06T15:54:18.248Z,0.5
2018-07-06T15:56:18.474Z,0.3
2018-07-06T15:58:18.315Z,0.3
2018-07-06T16:00:18.109Z,0.3
2018-07-06T16:02:17.941Z,0.2
2018-07-06T16:04:17.744Z,0.5
2018-07-06T16:06:17.834Z,0.5
2018-07-06T16:08:17.683Z,0.6
2018-07-06T16:10:17.989Z,0.5
2018-07-06T16:12:17.821Z,0.4
2018-07-06T16:14:17.636Z,0.5
2018-07-06T16:16:17.559Z,0.2
2018-07-06T16:18:18.483Z,0.5
2018-07-06T16:20:18.309Z,0.3
2018-07-06T16:22:18.112Z,0.4
2018-07-06T16:24:17.910Z,0.5
2018-07-06T16:26:18.328Z,0.5
2018-07-06T16:28:18.176Z,1.9
2018-07-06T16:30:18.008Z,0.5
2018-07-06T16:32:17.818Z,0.6
2018-07-06T16:34:17.655Z,0.4
2018-07-06T16:36:17.773Z,0.4
2018-07-06T16:38:17.656Z,0.3
2018-07-06T16:40:17.944Z,0.8
2018-07-06T16:42:17.746Z,0.6
2018-07-06T16:44:17.553Z,0.4
2018-07-06T16:46:18.525Z,0.5
2018-07-06T16:48:18.352Z,0.4
2018-07-06T16:50:18.160Z,0.7
2018-07-06T16:52:18.044Z,0.4
2018-07-06T16:54:17.985Z,0.4
2018-07-06T16:56:18.334Z,0.5
2018-07-06T16:58:18.210Z,0.4
2018-07-06T17:00:18.086Z,0.4
2018-07-06T17:02:17.915Z,0.5
2018-07-06T17:04:17.742Z,0.6
2018-07-06T17:06:18.345Z,1.1
2018-07-06T17:08:18.186Z,0.8
2018-07-06T17:10:18.484Z,0.6
2018-07-06T17:12:18.080Z,0.5
2018-07-06T17:14:17.963Z,9.2
2018-07-06T17:16:17.647Z,4.9
2018-07-06T17:18:18.537Z,5.6
2018-07-06T17:20:18.387Z,1.2
2018-07-06T17:22:18.243Z,0.7
2018-07-06T17:24:18.066Z,2.2
2018-07-06T17:26:18.176Z,0.9
2018-07-06T17:28:17.997Z,0.4
2018-07-06T17:30:17.833Z,0.7
2018-07-06T17:32:17.647Z,0.4
2018-07-06T17:34:18.494Z,1.1
2018-07-06T17:36:17.726Z,0.6
2018-07-06T17:38:18.544Z,0.7
2018-07-06T17:40:17.842Z,1.6
2018-07-06T17:42:17.651Z,0.7
2018-07-06T17:44:18.530Z,0.9
2018-07-06T17:46:18.386Z,1.1
2018-07-06T17:48:18.199Z,0.9
2018-07-06T17:50:18.043Z,0.8
2018-07-06T17:52:17.903Z,1.1
2018-07-06T17:54:17.709Z,1.1
2018-07-06T17:56:18.233Z,0.5
2018-07-06T17:58:18.149Z,1.3
2018-07-06T18:00:17.986Z,0.8
2018-07-06T18:02:18.144Z,1.1
2018-07-06T18:04:17.971Z,1
2018-07-06T18:06:17.584Z,1.1
2018-07-06T18:08:18.424Z,0.7
2018-07-06T18:10:17.720Z,0.8
2018-07-06T18:12:18.523Z,0.9
2018-07-06T18:14:18.360Z,0.9
2018-07-06T18:16:17.709Z,0.9
2018-07-06T18:18:17.624Z,0.6
2018-07-06T18:20:18.534Z,0.9
2018-07-06T18:22:18.376Z,1.5
2018-07-06T18:24:18.230Z,0.8
2018-07-06T18:26:18.395Z,2.3
2018-07-06T18:28:18.237Z,3.1
2018-07-06T18:30:18.112Z,2.9
2018-07-06T18:32:17.937Z,1.8
2018-07-06T18:34:17.752Z,3.3
2018-07-06T18:36:17.897Z,1.3
2018-07-06T18:38:17.715Z,0.8
2018-07-06T18:40:18.016Z,1.1
2018-07-06T18:42:17.850Z,1.1
2018-07-06T18:44:17.677Z,0.9
2018-07-06T18:46:17.800Z,2.4
2018-07-06T18:48:17.613Z,0.7
2018-07-06T18:50:18.439Z,0.4
2018-07-06T18:52:18.258Z,1.2
2018-07-06T18:54:18.076Z,0.7
2018-07-06T18:56:18.242Z,0.9
2018-07-06T18:58:18.072Z,0.2
2018-07-06T19:00:17.902Z,1.1
2018-07-06T19:02:17.703Z,0.8
2018-07-06T19:04:18.515Z,0.3
2018-07-06T19:06:17.571Z,0.3
2018-07-06T19:08:18.382Z,0.9
2018-07-06T19:10:17.700Z,0.5
2018-07-06T19:12:17.773Z,0.5
2018-07-06T19:14:17.592Z,0.6
2018-07-06T19:16:18.258Z,0.7
2018-07-06T19:18:18.149Z,0.5
2018-07-06T19:20:17.967Z,0.6
2018-07-06T19:22:17.773Z,0.4
2018-07-06T19:24:17.568Z,0.7
2018-07-06T19:26:17.700Z,0.7
2018-07-06T19:28:18.540Z,0.6
2018-07-06T19:30:18.412Z,1
2018-07-06T19:32:18.257Z,0.4
2018-07-06T19:34:18.109Z,0.4
2018-07-06T19:36:18.424Z,0.4
2018-07-06T19:38:18.258Z,0.3
2018-07-06T19:40:18.557Z,0.6
2018-07-06T19:42:18.414Z,0.4
2018-07-06T19:44:18.257Z,0.4
2018-07-06T19:46:18.068Z,0.7
2018-07-06T19:48:17.878Z,0.5
2018-07-06T19:50:17.717Z,0.6
2018-07-06T19:52:17.563Z,0.5
2018-07-06T19:54:18.412Z,0.6
2018-07-06T19:56:18.506Z,1.1
2018-07-06T19:58:18.408Z,0.4
2018-07-06T20:00:18.316Z,0.6
2018-07-06T20:02:18.140Z,0.4
2018-07-06T20:04:17.942Z,0.4
2018-07-06T20:06:18.399Z,1
2018-07-06T20:08:18.229Z,0.9
2018-07-06T20:10:18.553Z,0.4
2018-07-06T20:12:18.189Z,0.5
2018-07-06T20:14:18.105Z,0.3
2018-07-06T20:16:17.986Z,0.6
2018-07-06T20:18:17.890Z,0.5
2018-07-06T20:20:17.702Z,0.6
2018-07-06T20:22:18.526Z,0.5
2018-07-06T20:24:18.360Z,0.4
2018-07-06T20:26:18.520Z,0.5
2018-07-06T20:28:18.361Z,0.2
2018-07-06T20:30:18.161Z,0.7
2018-07-06T20:32:18.229Z,0.5
2018-07-06T20:34:18.033Z,0.8
2018-07-06T20:36:18.245Z,0.4
2018-07-06T20:38:18.064Z,1.1
2018-07-06T20:40:18.325Z,0.6
2018-07-06T20:42:18.156Z,0.4
2018-07-06T20:44:17.973Z,0.7
2018-07-06T20:46:17.695Z,1.1
2018-07-06T20:48:18.513Z,0.3
2018-07-06T20:50:18.325Z,0.7
2018-07-06T20:52:18.026Z,0.9
2018-07-06T20:54:17.867Z,0.9
2018-07-06T20:56:18.445Z,0.5
2018-07-06T20:58:18.284Z,0.4
2018-07-06T21:00:18.141Z,0.5
2018-07-06T21:02:18.118Z,1.9
2018-07-06T21:04:17.933Z,0.4
2018-07-06T21:06:17.596Z,0.8
2018-07-06T21:08:18.405Z,0.8
2018-07-06T21:10:17.774Z,0.5
2018-07-06T21:12:17.564Z,0.5
2018-07-06T21:14:18.348Z,0.5
2018-07-06T21:16:17.960Z,0.5
2018-07-06T21:18:17.827Z,0.5
2018-07-06T21:20:17.677Z,0.6
2018-07-06T21:22:18.345Z,1.2
2018-07-06T21:24:18.190Z,0.7
2018-07-06T21:26:17.911Z,0.3
2018-07-06T21:28:17.717Z,0.4
2018-07-06T21:30:17.598Z,0.7
2018-07-06T21:32:18.418Z,0.8
2018-07-06T21:34:18.249Z,0.7
2018-07-06T21:36:17.553Z,0.3
2018-07-06T21:38:18.364Z,0.6
2018-07-06T21:40:17.826Z,0.5
2018-07-06T21:42:17.644Z,0.5
2018-07-06T21:44:18.464Z,0.3
2018-07-06T21:46:17.892Z,0.7
2018-07-06T21:48:17.710Z,0.5
2018-07-06T21:50:18.491Z,0.3
2018-07-06T21:52:17.574Z,0.3
2018-07-06T21:54:18.400Z,0.7
2018-07-06T21:56:18.508Z,0.4
2018-07-06T21:58:18.297Z,0.3
2018-07-06T22:00:18.244Z,1.1
2018-07-06T22:02:19.067Z,0.6
2018-07-06T22:04:17.879Z,0.3
2018-07-06T22:06:17.960Z,0.9
2018-07-06T22:08:18.806Z,0.6
2018-07-06T22:10:19.239Z,0.7
2018-07-06T22:12:19.061Z,0.5
2018-07-06T22:14:17.888Z,0.8
2018-07-06T22:16:19.159Z,0.3
2018-07-06T22:18:18.015Z,0.5
2018-07-06T22:20:17.902Z,0.5
2018-07-06T22:22:17.890Z,0.4
2018-07-06T22:24:17.681Z,0.3
2018-07-06T22:26:18.292Z,0.5
2018-07-06T22:28:18.101Z,0.3
2018-07-06T22:30:17.892Z,0.5
2018-07-06T22:32:18.716Z,0.7
2018-07-06T22:34:17.527Z,0.3
2018-07-06T22:36:18.809Z,0.6
2018-07-06T22:38:17.615Z,0.5
2018-07-06T22:40:18.888Z,0.8
2018-07-06T22:42:18.688Z,0.4
2018-07-06T22:44:18.501Z,0.6
2018-07-06T22:46:18.703Z,0.5
2018-07-06T22:48:18.486Z,0.6
2018-07-06T22:50:18.294Z,0.3
2018-07-06T22:52:18.106Z,0.4
2018-07-06T22:54:18.899Z,0.4
2018-07-06T22:56:17.686Z,0.8
2018-07-06T22:58:18.498Z,0.7
2018-07-06T23:00:19.316Z,0.9
2018-07-06T23:02:19.086Z,0.7
2018-07-06T23:04:17.955Z,0.8
2018-07-06T23:06:17.750Z,0.7
2018-07-06T23:08:18.576Z,1
2018-07-06T23:10:18.850Z,0.8
2018-07-06T23:12:18.642Z,0.9
2018-07-06T23:14:19.441Z,0.5
2018-07-06T23:16:18.005Z,0.4
2018-07-06T23:18:17.905Z,0.8
2018-07-06T23:20:18.749Z,0.4
2018-07-06T23:22:18.561Z,0.6
2018-07-06T23:24:18.361Z,0.9
2018-07-06T23:26:17.943Z,0.6
2018-07-06T23:28:18.738Z,0.7
2018-07-06T23:30:18.526Z,0.8
2018-07-06T23:32:19.391Z,0.4
2018-07-06T23:34:18.365Z,0.5
2018-07-06T23:36:19.135Z,0.7
2018-07-06T23:38:18.953Z,0.6
2018-07-06T23:40:19.360Z,0.8
2018-07-06T23:42:19.142Z,0.8
2018-07-06T23:44:18.963Z,0.5
2018-07-06T23:46:18.083Z,1.1
2018-07-06T23:48:18.888Z,0.7
2018-07-06T23:50:17.689Z,0.9
2018-07-06T23:52:19.521Z,0.9
2018-07-06T23:54:19.335Z,0.6
2018-07-06T23:56:19.478Z,0.7
2018-07-06T23:58:18.274Z,0.7
